NCAR-RAP Real-Time Weather Data

Output produced by METARs form (17 September 2019  16:12 UTC)
found at http://weather.rap.ucar.edu/surface/
 
KHTL 171553Z AUTO 15007KT 10SM OVC007 17/14 A3025 RMK AO2 SLP246 T01670139
KHTL 171546Z AUTO 11007KT 10SM OVC007 16/14 A3026 RMK AO2 T01610139
KHTL 171453Z AUTO 17006KT 10SM OVC006 16/13 A3024 RMK AO2 SLP244 T01560133 58004
KHTL 171353Z AUTO 17005KT 10SM BKN006 14/13 A3025 RMK AO2 SLP246 T01440133
KHTL 171329Z AUTO 16005KT 10SM SCT003 14/13 A3025 RMK AO2 T01440133
KHTL 171306Z AUTO 12004KT 5SM BR OVC002 14/14 A3025 RMK AO2 T01390139
KHTL 171258Z AUTO 12003KT 2SM BR OVC002 14/13 A3025 RMK AO2 VIS 1 1/4V4 T01390133
KHTL 171255Z AUTO 13004KT 1 1/4SM BR OVC002 14/13 A3025 RMK AO2 VIS 1/2V3 T01390133
KHTL 171253Z AUTO 13004KT 3/4SM BR VV002 14/13 A3025 RMK AO2 SLP245 T01390133
KHTL 171153Z AUTO 10003KT 1/2SM FG OVC002 13/13 A3025 RMK AO2 SLP245 T01330128 10144 20128 53013
KHTL 171148Z AUTO 10003KT 3/4SM BR OVC003 13/12 A3025 RMK AO2
KHTL 171136Z AUTO 00000KT 1 1/4SM BR OVC003 13/12 A3025 RMK AO2 T01280122
KHTL 171128Z AUTO 07003KT 3/4SM BR BKN003 13/12 A3025 RMK AO2 VIS 1/4V4 T01280122
KHTL 171125Z AUTO 00000KT 1SM BR BKN004 13/12 A3025 RMK AO2 VIS 1/4V5 T01280122
KHTL 171053Z AUTO 00000KT 9SM OVC004 14/13 A3024 RMK AO2 SLP239 T01390133
KHTL 171046Z AUTO 00000KT 9SM OVC004 14/13 A3024 RMK AO2 T01440133
KHTL 170953Z AUTO 00000KT 5SM BR OVC003 14/14 A3022 RMK AO2 SLP232 T01390139
KHTL 170925Z AUTO 00000KT 5SM BR OVC002 14/14 A3022 RMK AO2 T01390139
KHTL 170916Z AUTO 10003KT 2SM BR OVC002 14/14 A3022 RMK AO2 T01440139
KHTL 170913Z AUTO 10004KT 1 1/4SM BR OVC002 14/14 A3022 RMK AO2 T01440139
KHTL 170853Z AUTO 16004KT 3/4SM BR VV002 14/14 A3022 RMK AO2 SLP230 T01440139 53005
KHTL 170815Z AUTO 00000KT 3/4SM BR VV002 14/14 A3020 RMK AO2 T01440139
KHTL 170753Z AUTO 12003KT 1SM BR VV002 14/14 A3020 RMK AO2 SLP226 T01440144
KHTL 170740Z AUTO 14003KT 1SM BR VV002 14/14 A3020 RMK AO2 T01440139
KHTL 170716Z AUTO 15003KT 3/4SM BR VV003 14/14 A3020 RMK AO2 T01440139
KHTL 170704Z AUTO 15003KT 1SM BR VV002 14/14 A3020 RMK AO2 T01440139
KHTL 170653Z AUTO 16004KT 3/4SM BR VV002 14/14 A3020 RMK AO2 SLP225 T01390139
KHTL 170553Z AUTO 09005KT 1/4SM FG VV002 13/13 A3020 RMK AO2 SLP226 T01330133 10194 20117 51008
KHTL 170453Z AUTO 06004KT 1/4SM FG VV001 12/11 A3020 RMK AO2 SLP227 T01170111 402440117
KHTL 170416Z AUTO 09003KT 1/4SM FG VV002 13/12 A3019 RMK AO2 T01280122
KHTL 170353Z AUTO 00000KT 1/2SM FG CLR 13/12 A3019 RMK AO2 SLP223 T01280122
KHTL 170350Z AUTO 00000KT 1SM BR CLR 13/13 A3019 RMK AO2
KHTL 170348Z AUTO 00000KT 1 3/4SM BR CLR 13/13 A3019 RMK AO2
KHTL 170341Z AUTO 00000KT 3SM BR FEW002 13/13 A3019 RMK AO2 T01330133
KHTL 170338Z AUTO 00000KT 1 1/4SM BR FEW002 14/14 A3019 RMK AO2 T01390139
KHTL 170253Z AUTO 09003KT 1/4SM FG VV002 13/12 A3018 RMK AO2 SLP220 T01280122 51010
KHTL 170053Z AUTO 08004KT 10SM CLR 17/15 A3017 RMK AO2 SLP215 T01670150
KHTL 162353Z AUTO 05004KT 10SM CLR 19/16 A3015 RMK AO2 SLP208 T01890156 10244 20189 53007
KHTL 162253Z AUTO 36003KT 10SM SCT046 24/14 A3014 RMK AO2 SLP202 T02390139
KHTL 162153Z AUTO 26004KT 10SM CLR 24/14 A3013 RMK AO2 SLP199 T02390144
KHTL 162053Z AUTO 26006KT 10SM FEW039 24/15 A3012 RMK AO2 SLP198 T02390150 56007
KHTL 161953Z AUTO 24005KT 10SM FEW034 23/16 A3013 RMK AO2 SLP199 T02330156